Terminal Aerodrome Forecast
Issued by NWS Charleston, WV

Current Version | Previous Version | Graphics & Text | Print | Product List | Glossary On
Versions: 1 2 3 4 5 6 7 8 9 10 11 12 13 14 15 16 17 18 19 20 21 22 23 24 25 26
000
FTUS41 KRLX 252334
TAFHTS
TAF
KHTS 252334Z 2600/2624 23004KT P6SM VCSH BKN060
     FM260300 18004KT 6SM BR BKN050
     FM261000 VRB03KT 5SM -SHRA BR OVC040
     FM261500 20008KT 6SM HZ BKN035
     FM262100 21008KT 4SM SHRA BR VCTS BKN035CB=

USA.gov is the U.S. government's official web portal to all federal, state and local government web resources and services.